LGSM Airport Information

Runway Information
Runway 09 Length 6706 ft width 148 ft
Elevation 20 ft Threshold 230 ft Heading 94
Runway 27 Length 6706 ft Width 148 ft
Elevation 10 ft Threshold 0 ft Heading 274
Airport Frequencies
Type A/G Name RDO Frequency 563.7 MHZ
Type APP Name APP Frequency 122.1 MHZ
Type TWR Name TWR Frequency 122.1 MHZ
Airport Navaids
Type VOR-DME Name Samos Frequency 111600 KHZ
Type NDB Name Samos Frequency 375 KHZ
Airport Weather Information & NOTAM
ADDS - METARS form results

(1048 UTC 19 September 2018)
Data provider http://aviationweather.gov/metar/data/
 
METAR text: LGSM 191020Z 01010KT CAVOK 28/13 Q1013
Conditions at: LGSM (SAMOS AIRPORT , GR) observed 1020 UTC 19 September 2018
Temperature: 28.0°C (82°F)
Dewpoint: 13.0°C (55°F) [RH = 40%]
Pressure (altimeter): 29.91 inches Hg (1013.0 mb)
Winds: from the N (10 degrees) at 12 MPH (10 knots; 5.1 m/s)
Visibility: 6 or more miles (10+ km)
Ceiling: ceiling and visibility are OK
Clouds: unknown
Weather: no significant weather observed at this time

METAR text: LGSM 190950Z 01013KT CAVOK 28/13 Q1014
Conditions at: LGSM (SAMOS AIRPORT , GR) observed 0950 UTC 19 September 2018
Temperature: 28.0°C (82°F)
Dewpoint: 13.0°C (55°F) [RH = 40%]
Pressure (altimeter): 29.94 inches Hg (1014.0 mb)
Winds: from the N (10 degrees) at 15 MPH (13 knots; 6.7 m/s)
Visibility: 6 or more miles (10+ km)
Ceiling: ceiling and visibility are OK
Clouds: unknown
Weather: no significant weather observed at this time

Forecast for: LGSM (SAMOS AIRPORT , GR)
Text: TAF LGSM 190800Z 1909/1918 01015KT 9999 FEW020
Forecast period: 0900 to 1800 UTC 19 September 2018
Forecast type: FROM: standard forecast or significant change
Winds: from the N (10 degrees) at 17 MPH (15 knots; 7.7 m/s)
Visibility: 6 or more miles 10+ km)
Ceiling: at least 12,000 feet AGL
Clouds: few clouds at 2000 feet AGL
Weather: no significant weather forecast for this period
Text: TEMPO 1909/1915 33017G27KT
Forecast period: 0900 to 1500 UTC 19 September 2018
Forecast type: TEMPORARY: The following changes expected for less than half the time period
Winds: from the NNW (330 degrees) at 20 MPH (17 knots; 8.7 m/s)
gusting to 31 MPH (27 knots; 13.9 m/s)
Visibility: missing
Ceiling: unknown
Clouds: missing
Weather: no significant weather forecast for this period